sensor_id;sensor_type;location;lat;lon;timestamp;P1;durP1;ratioP1;P2;durP2;ratioP2
6864;SDS011;3471;49.678;8.388;2023-08-12T00:01:31;11.23;;;6.87;;
6864;SDS011;3471;49.678;8.388;2023-08-12T00:03:56;7.80;;;5.47;;
6864;SDS011;3471;49.678;8.388;2023-08-12T00:06:22;8.70;;;6.60;;
6864;SDS011;3471;49.678;8.388;2023-08-12T00:08:48;6.30;;;5.57;;
6864;SDS011;3471;49.678;8.388;2023-08-12T00:11:13;6.50;;;5.82;;
6864;SDS011;3471;49.678;8.388;2023-08-12T00:13:39;9.48;;;5.78;;
6864;SDS011;3471;49.678;8.388;2023-08-12T00:16:04;12.88;;;6.00;;
6864;SDS011;3471;49.678;8.388;2023-08-12T00:18:30;7.82;;;5.90;;
6864;SDS011;3471;49.678;8.388;2023-08-12T00:21:03;9.43;;;6.60;;
6864;SDS011;3471;49.678;8.388;2023-08-12T00:23:31;4.38;;;3.97;;
6864;SDS011;3471;49.678;8.388;2023-08-12T00:25:58;8.60;;;6.32;;
6864;SDS011;3471;49.678;8.388;2023-08-12T00:28:23;6.13;;;5.53;;
6864;SDS011;3471;49.678;8.388;2023-08-12T00:30:49;5.07;;;4.68;;
6864;SDS011;3471;49.678;8.388;2023-08-12T00:33:15;6.28;;;5.78;;
6864;SDS011;3471;49.678;8.388;2023-08-12T00:35:40;6.40;;;5.72;;
6864;SDS011;3471;49.678;8.388;2023-08-12T00:38:06;10.67;;;4.87;;
6864;SDS011;3471;49.678;8.388;2023-08-12T00:40:31;6.10;;;5.50;;
6864;SDS011;3471;49.678;8.388;2023-08-12T00:42:57;5.73;;;5.13;;
6864;SDS011;3471;49.678;8.388;2023-08-12T00:45:23;6.63;;;5.93;;
6864;SDS011;3471;49.678;8.388;2023-08-12T00:47:49;6.05;;;5.53;;
6864;SDS011;3471;49.678;8.388;2023-08-12T00:50:14;9.90;;;5.83;;
6864;SDS011;3471;49.678;8.388;2023-08-12T00:52:41;6.05;;;5.53;;
6864;SDS011;3471;49.678;8.388;2023-08-12T00:55:07;8.60;;;5.47;;
6864;SDS011;3471;49.678;8.388;2023-08-12T00:57:32;8.48;;;6.97;;
6864;SDS011;3471;49.678;8.388;2023-08-12T00:59:59;5.80;;;5.20;;
6864;SDS011;3471;49.678;8.388;2023-08-12T01:02:24;15.10;;;6.75;;
6864;SDS011;3471;49.678;8.388;2023-08-12T01:04:50;25.73;;;14.40;;
6864;SDS011;3471;49.678;8.388;2023-08-12T01:07:16;9.37;;;7.90;;
6864;SDS011;3471;49.678;8.388;2023-08-12T01:09:41;5.90;;;5.30;;
6864;SDS011;3471;49.678;8.388;2023-08-12T01:12:15;9.10;;;6.47;;
6864;SDS011;3471;49.678;8.388;2023-08-12T01:14:54;13.23;;;7.50;;
6864;SDS011;3471;49.678;8.388;2023-08-12T01:17:33;7.55;;;6.75;;
6864;SDS011;3471;49.678;8.388;2023-08-12T01:20:01;4.97;;;4.47;;
6864;SDS011;3471;49.678;8.388;2023-08-12T01:22:33;7.72;;;6.80;;
6864;SDS011;3471;49.678;8.388;2023-08-12T01:25:04;6.30;;;5.25;;
6864;SDS011;3471;49.678;8.388;2023-08-12T01:27:30;10.55;;;5.85;;
6864;SDS011;3471;49.678;8.388;2023-08-12T01:29:56;7.30;;;5.97;;
6864;SDS011;3471;49.678;8.388;2023-08-12T01:32:30;7.70;;;5.90;;
6864;SDS011;3471;49.678;8.388;2023-08-12T01:35:16;6.05;;;5.05;;
6864;SDS011;3471;49.678;8.388;2023-08-12T01:37:45;13.30;;;5.50;;
6864;SDS011;3471;49.678;8.388;2023-08-12T01:40:14;6.17;;;5.57;;
6864;SDS011;3471;49.678;8.388;2023-08-12T01:42:41;5.70;;;5.10;;
6864;SDS011;3471;49.678;8.388;2023-08-12T01:45:08;5.57;;;5.00;;
6864;SDS011;3471;49.678;8.388;2023-08-12T01:47:34;8.75;;;5.10;;
6864;SDS011;3471;49.678;8.388;2023-08-12T01:49:59;7.90;;;6.20;;
6864;SDS011;3471;49.678;8.388;2023-08-12T01:52:25;5.20;;;4.80;;
6864;SDS011;3471;49.678;8.388;2023-08-12T01:54:51;6.67;;;5.97;;
6864;SDS011;3471;49.678;8.388;2023-08-12T01:57:16;5.10;;;4.65;;
6864;SDS011;3471;49.678;8.388;2023-08-12T01:59:42;6.07;;;4.28;;
6864;SDS011;3471;49.678;8.388;2023-08-12T02:02:09;5.10;;;4.60;;
6864;SDS011;3471;49.678;8.388;2023-08-12T02:04:35;10.32;;;5.53;;
6864;SDS011;3471;49.678;8.388;2023-08-12T02:07:02;6.50;;;5.40;;
6864;SDS011;3471;49.678;8.388;2023-08-12T02:09:28;5.72;;;4.90;;
6864;SDS011;3471;49.678;8.388;2023-08-12T02:11:54;5.00;;;4.60;;
6864;SDS011;3471;49.678;8.388;2023-08-12T02:14:20;10.90;;;4.97;;
6864;SDS011;3471;49.678;8.388;2023-08-12T02:16:45;6.25;;;5.32;;
6864;SDS011;3471;49.678;8.388;2023-08-12T02:19:11;7.20;;;5.00;;
6864;SDS011;3471;49.678;8.388;2023-08-12T02:21:36;7.63;;;6.50;;
6864;SDS011;3471;49.678;8.388;2023-08-12T02:24:02;5.43;;;4.93;;
6864;SDS011;3471;49.678;8.388;2023-08-12T02:26:28;5.30;;;4.80;;
6864;SDS011;3471;49.678;8.388;2023-08-12T02:28:53;5.97;;;5.40;;
6864;SDS011;3471;49.678;8.388;2023-08-12T02:31:19;6.18;;;4.90;;
6864;SDS011;3471;49.678;8.388;2023-08-12T02:33:44;5.75;;;4.68;;
6864;SDS011;3471;49.678;8.388;2023-08-12T02:36:10;5.47;;;4.88;;
6864;SDS011;3471;49.678;8.388;2023-08-12T02:38:35;5.30;;;4.80;;
6864;SDS011;3471;49.678;8.388;2023-08-12T02:41:01;5.13;;;4.70;;
6864;SDS011;3471;49.678;8.388;2023-08-12T02:43:27;9.43;;;4.60;;
6864;SDS011;3471;49.678;8.388;2023-08-12T02:45:52;6.47;;;4.63;;
6864;SDS011;3471;49.678;8.388;2023-08-12T02:48:18;5.28;;;4.03;;
6864;SDS011;3471;49.678;8.388;2023-08-12T02:50:44;7.23;;;5.13;;
6864;SDS011;3471;49.678;8.388;2023-08-12T02:53:09;7.93;;;4.38;;
6864;SDS011;3471;49.678;8.388;2023-08-12T02:55:35;6.20;;;4.20;;
6864;SDS011;3471;49.678;8.388;2023-08-12T02:58:02;4.50;;;4.10;;
6864;SDS011;3471;49.678;8.388;2023-08-12T03:00:29;6.75;;;4.90;;
6864;SDS011;3471;49.678;8.388;2023-08-12T03:02:55;4.60;;;3.93;;
6864;SDS011;3471;49.678;8.388;2023-08-12T03:05:20;4.17;;;3.43;;
6864;SDS011;3471;49.678;8.388;2023-08-12T03:07:47;4.25;;;3.47;;
6864;SDS011;3471;49.678;8.388;2023-08-12T03:10:12;3.80;;;3.50;;
6864;SDS011;3471;49.678;8.388;2023-08-12T03:12:38;8.63;;;5.57;;
6864;SDS011;3471;49.678;8.388;2023-08-12T03:15:06;5.60;;;5.20;;
6864;SDS011;3471;49.678;8.388;2023-08-12T03:17:32;5.93;;;4.63;;
6864;SDS011;3471;49.678;8.388;2023-08-12T03:19:58;5.00;;;4.50;;
6864;SDS011;3471;49.678;8.388;2023-08-12T03:22:27;6.05;;;4.93;;
6864;SDS011;3471;49.678;8.388;2023-08-12T03:24:52;5.50;;;5.00;;
6864;SDS011;3471;49.678;8.388;2023-08-12T03:27:18;7.30;;;4.00;;
6864;SDS011;3471;49.678;8.388;2023-08-12T03:29:44;8.70;;;4.10;;
6864;SDS011;3471;49.678;8.388;2023-08-12T03:32:09;4.13;;;3.72;;
6864;SDS011;3471;49.678;8.388;2023-08-12T03:34:35;6.57;;;4.70;;
6864;SDS011;3471;49.678;8.388;2023-08-12T03:37:00;7.07;;;4.97;;
6864;SDS011;3471;49.678;8.388;2023-08-12T03:39:26;6.25;;;5.75;;
6864;SDS011;3471;49.678;8.388;2023-08-12T03:41:52;7.40;;;4.90;;
6864;SDS011;3471;49.678;8.388;2023-08-12T03:44:18;11.93;;;4.20;;
6864;SDS011;3471;49.678;8.388;2023-08-12T03:46:44;6.40;;;4.03;;
6864;SDS011;3471;49.678;8.388;2023-08-12T03:49:09;7.65;;;5.00;;
6864;SDS011;3471;49.678;8.388;2023-08-12T03:51:35;4.85;;;4.45;;
6864;SDS011;3471;49.678;8.388;2023-08-12T03:54:00;9.40;;;5.27;;
6864;SDS011;3471;49.678;8.388;2023-08-12T03:56:26;5.20;;;4.70;;
6864;SDS011;3471;49.678;8.388;2023-08-12T03:58:51;9.90;;;4.77;;
6864;SDS011;3471;49.678;8.388;2023-08-12T04:01:17;4.03;;;3.63;;
6864;SDS011;3471;49.678;8.388;2023-08-12T04:03:43;12.33;;;5.20;;
6864;SDS011;3471;49.678;8.388;2023-08-12T04:06:08;11.55;;;6.35;;
6864;SDS011;3471;49.678;8.388;2023-08-12T04:08:34;10.00;;;5.05;;
6864;SDS011;3471;49.678;8.388;2023-08-12T04:10:59;5.53;;;4.72;;
6864;SDS011;3471;49.678;8.388;2023-08-12T04:13:25;5.80;;;4.72;;
6864;SDS011;3471;49.678;8.388;2023-08-12T04:15:51;7.32;;;5.47;;
6864;SDS011;3471;49.678;8.388;2023-08-12T04:18:18;8.60;;;5.93;;
6864;SDS011;3471;49.678;8.388;2023-08-12T04:20:50;4.97;;;4.40;;
6864;SDS011;3471;49.678;8.388;2023-08-12T04:23:17;5.88;;;5.28;;
6864;SDS011;3471;49.678;8.388;2023-08-12T04:25:44;12.90;;;5.53;;
6864;SDS011;3471;49.678;8.388;2023-08-12T04:28:11;7.63;;;6.35;;
6864;SDS011;3471;49.678;8.388;2023-08-12T04:30:44;6.10;;;5.13;;
6864;SDS011;3471;49.678;8.388;2023-08-12T04:33:11;8.90;;;6.10;;
6864;SDS011;3471;49.678;8.388;2023-08-12T04:35:38;5.57;;;4.53;;
6864;SDS011;3471;49.678;8.388;2023-08-12T04:38:04;7.03;;;6.07;;
6864;SDS011;3471;49.678;8.388;2023-08-12T04:40:29;7.40;;;5.10;;
6864;SDS011;3471;49.678;8.388;2023-08-12T04:42:55;5.10;;;4.60;;
6864;SDS011;3471;49.678;8.388;2023-08-12T04:45:21;6.93;;;5.63;;
6864;SDS011;3471;49.678;8.388;2023-08-12T04:47:46;6.10;;;5.50;;
6864;SDS011;3471;49.678;8.388;2023-08-12T04:50:12;5.60;;;5.10;;
6864;SDS011;3471;49.678;8.388;2023-08-12T04:52:38;4.57;;;4.17;;
6864;SDS011;3471;49.678;8.388;2023-08-12T04:55:04;5.20;;;4.70;;
6864;SDS011;3471;49.678;8.388;2023-08-12T04:57:30;11.40;;;5.10;;
6864;SDS011;3471;49.678;8.388;2023-08-12T04:59:55;6.30;;;4.70;;
6864;SDS011;3471;49.678;8.388;2023-08-12T05:02:21;5.30;;;4.85;;
6864;SDS011;3471;49.678;8.388;2023-08-12T05:04:48;6.93;;;5.25;;
6864;SDS011;3471;49.678;8.388;2023-08-12T05:07:15;4.82;;;4.38;;
6864;SDS011;3471;49.678;8.388;2023-08-12T05:09:41;4.28;;;3.78;;
6864;SDS011;3471;49.678;8.388;2023-08-12T05:12:09;5.00;;;4.43;;
6864;SDS011;3471;49.678;8.388;2023-08-12T05:14:35;5.53;;;4.20;;
6864;SDS011;3471;49.678;8.388;2023-08-12T05:17:01;14.05;;;4.68;;
6864;SDS011;3471;49.678;8.388;2023-08-12T05:19:27;5.13;;;4.50;;
6864;SDS011;3471;49.678;8.388;2023-08-12T05:21:53;5.53;;;4.95;;
6864;SDS011;3471;49.678;8.388;2023-08-12T05:24:18;5.23;;;4.73;;
6864;SDS011;3471;49.678;8.388;2023-08-12T05:26:44;5.13;;;4.63;;
6864;SDS011;3471;49.678;8.388;2023-08-12T05:29:09;6.90;;;5.43;;
6864;SDS011;3471;49.678;8.388;2023-08-12T05:31:35;6.17;;;5.50;;
6864;SDS011;3471;49.678;8.388;2023-08-12T05:34:01;6.10;;;5.30;;
6864;SDS011;3471;49.678;8.388;2023-08-12T05:36:27;9.73;;;4.88;;
6864;SDS011;3471;49.678;8.388;2023-08-12T05:38:53;6.20;;;5.32;;
6864;SDS011;3471;49.678;8.388;2023-08-12T05:41:19;9.07;;;4.37;;
6864;SDS011;3471;49.678;8.388;2023-08-12T05:43:45;6.10;;;5.50;;
6864;SDS011;3471;49.678;8.388;2023-08-12T05:46:12;6.47;;;4.88;;
6864;SDS011;3471;49.678;8.388;2023-08-12T05:48:37;7.10;;;6.20;;
6864;SDS011;3471;49.678;8.388;2023-08-12T05:51:03;6.20;;;5.60;;
6864;SDS011;3471;49.678;8.388;2023-08-12T05:53:28;7.17;;;4.80;;
6864;SDS011;3471;49.678;8.388;2023-08-12T05:55:54;5.60;;;5.10;;
6864;SDS011;3471;49.678;8.388;2023-08-12T05:58:19;6.20;;;5.60;;
6864;SDS011;3471;49.678;8.388;2023-08-12T06:00:45;8.25;;;5.72;;
6864;SDS011;3471;49.678;8.388;2023-08-12T06:03:11;5.72;;;5.10;;
6864;SDS011;3471;49.678;8.388;2023-08-12T06:05:37;6.30;;;5.15;;
6864;SDS011;3471;49.678;8.388;2023-08-12T06:08:04;6.85;;;5.70;;
6864;SDS011;3471;49.678;8.388;2023-08-12T06:10:30;6.57;;;5.93;;
6864;SDS011;3471;49.678;8.388;2023-08-12T06:12:55;7.18;;;6.57;;
6864;SDS011;3471;49.678;8.388;2023-08-12T06:15:21;6.32;;;5.72;;
6864;SDS011;3471;49.678;8.388;2023-08-12T06:17:46;7.60;;;6.10;;
6864;SDS011;3471;49.678;8.388;2023-08-12T06:20:12;10.10;;;5.73;;
6864;SDS011;3471;49.678;8.388;2023-08-12T06:22:37;7.17;;;5.10;;
6864;SDS011;3471;49.678;8.388;2023-08-12T06:25:03;10.93;;;6.30;;
6864;SDS011;3471;49.678;8.388;2023-08-12T06:27:29;6.63;;;6.05;;
6864;SDS011;3471;49.678;8.388;2023-08-12T06:29:54;6.63;;;5.97;;
6864;SDS011;3471;49.678;8.388;2023-08-12T06:32:20;8.32;;;6.30;;
6864;SDS011;3471;49.678;8.388;2023-08-12T06:34:46;9.40;;;7.27;;
6864;SDS011;3471;49.678;8.388;2023-08-12T06:37:11;11.00;;;6.30;;
6864;SDS011;3471;49.678;8.388;2023-08-12T06:39:37;7.20;;;6.33;;
6864;SDS011;3471;49.678;8.388;2023-08-12T06:42:02;6.80;;;6.20;;
6864;SDS011;3471;49.678;8.388;2023-08-12T06:44:28;5.80;;;4.97;;
6864;SDS011;3471;49.678;8.388;2023-08-12T06:46:54;10.63;;;6.90;;
6864;SDS011;3471;49.678;8.388;2023-08-12T06:49:19;8.80;;;7.73;;
6864;SDS011;3471;49.678;8.388;2023-08-12T06:51:45;9.83;;;5.70;;
6864;SDS011;3471;49.678;8.388;2023-08-12T06:54:10;6.40;;;5.60;;
6864;SDS011;3471;49.678;8.388;2023-08-12T06:56:36;7.25;;;6.45;;
6864;SDS011;3471;49.678;8.388;2023-08-12T06:59:02;10.07;;;7.17;;
6864;SDS011;3471;49.678;8.388;2023-08-12T07:01:27;10.00;;;6.97;;
6864;SDS011;3471;49.678;8.388;2023-08-12T07:03:53;10.20;;;8.23;;
6864;SDS011;3471;49.678;8.388;2023-08-12T07:06:18;5.53;;;5.03;;
6864;SDS011;3471;49.678;8.388;2023-08-12T07:08:44;8.32;;;7.53;;
6864;SDS011;3471;49.678;8.388;2023-08-12T07:11:09;6.77;;;5.70;;
6864;SDS011;3471;49.678;8.388;2023-08-12T07:13:35;9.20;;;7.00;;
6864;SDS011;3471;49.678;8.388;2023-08-12T07:16:01;10.50;;;5.60;;
6864;SDS011;3471;49.678;8.388;2023-08-12T07:18:26;7.00;;;6.10;;
6864;SDS011;3471;49.678;8.388;2023-08-12T07:20:52;7.07;;;6.43;;
6864;SDS011;3471;49.678;8.388;2023-08-12T07:23:17;8.93;;;6.27;;
6864;SDS011;3471;49.678;8.388;2023-08-12T07:25:45;13.43;;;6.20;;
6864;SDS011;3471;49.678;8.388;2023-08-12T07:28:11;6.18;;;5.57;;
6864;SDS011;3471;49.678;8.388;2023-08-12T07:30:37;6.38;;;5.80;;
6864;SDS011;3471;49.678;8.388;2023-08-12T07:33:03;7.65;;;6.85;;
6864;SDS011;3471;49.678;8.388;2023-08-12T07:35:30;11.00;;;7.33;;
6864;SDS011;3471;49.678;8.388;2023-08-12T07:37:55;6.60;;;5.60;;
6864;SDS011;3471;49.678;8.388;2023-08-12T07:40:21;8.53;;;6.10;;
6864;SDS011;3471;49.678;8.388;2023-08-12T07:42:46;7.53;;;6.00;;
6864;SDS011;3471;49.678;8.388;2023-08-12T07:45:12;9.23;;;5.80;;
6864;SDS011;3471;49.678;8.388;2023-08-12T07:47:38;7.15;;;6.53;;
6864;SDS011;3471;49.678;8.388;2023-08-12T07:50:04;6.80;;;5.80;;
6864;SDS011;3471;49.678;8.388;2023-08-12T07:52:30;7.05;;;6.35;;
6864;SDS011;3471;49.678;8.388;2023-08-12T07:54:56;7.43;;;6.57;;
6864;SDS011;3471;49.678;8.388;2023-08-12T07:57:21;10.32;;;7.25;;
6864;SDS011;3471;49.678;8.388;2023-08-12T07:59:49;9.38;;;6.40;;
6864;SDS011;3471;49.678;8.388;2023-08-12T08:02:17;10.02;;;7.00;;
6864;SDS011;3471;49.678;8.388;2023-08-12T08:04:43;6.97;;;6.27;;
6864;SDS011;3471;49.678;8.388;2023-08-12T08:07:09;9.60;;;6.95;;
6864;SDS011;3471;49.678;8.388;2023-08-12T08:09:35;6.70;;;6.10;;
6864;SDS011;3471;49.678;8.388;2023-08-12T08:12:02;9.32;;;6.20;;
6864;SDS011;3471;49.678;8.388;2023-08-12T08:14:27;8.80;;;7.90;;
6864;SDS011;3471;49.678;8.388;2023-08-12T08:16:53;8.10;;;6.75;;
6864;SDS011;3471;49.678;8.388;2023-08-12T08:19:18;6.97;;;6.27;;
6864;SDS011;3471;49.678;8.388;2023-08-12T08:21:44;6.33;;;5.20;;
6864;SDS011;3471;49.678;8.388;2023-08-12T08:24:10;7.15;;;5.95;;
6864;SDS011;3471;49.678;8.388;2023-08-12T08:26:37;8.25;;;7.05;;
6864;SDS011;3471;49.678;8.388;2023-08-12T08:29:03;9.98;;;6.78;;
6864;SDS011;3471;49.678;8.388;2023-08-12T08:31:29;6.95;;;6.25;;
6864;SDS011;3471;49.678;8.388;2023-08-12T08:33:55;11.43;;;6.40;;
6864;SDS011;3471;49.678;8.388;2023-08-12T08:36:20;6.43;;;5.83;;
6864;SDS011;3471;49.678;8.388;2023-08-12T08:38:46;5.80;;;5.20;;
6864;SDS011;3471;49.678;8.388;2023-08-12T08:41:11;8.60;;;6.80;;
6864;SDS011;3471;49.678;8.388;2023-08-12T08:43:38;6.78;;;6.07;;
6864;SDS011;3471;49.678;8.388;2023-08-12T08:46:08;8.60;;;7.05;;
6864;SDS011;3471;49.678;8.388;2023-08-12T08:48:35;7.00;;;6.32;;
6864;SDS011;3471;49.678;8.388;2023-08-12T08:51:01;10.30;;;6.57;;
6864;SDS011;3471;49.678;8.388;2023-08-12T08:53:28;11.70;;;5.88;;
6864;SDS011;3471;49.678;8.388;2023-08-12T08:55:53;10.80;;;6.60;;
6864;SDS011;3471;49.678;8.388;2023-08-12T08:58:20;11.90;;;7.10;;
6864;SDS011;3471;49.678;8.388;2023-08-12T09:00:46;6.87;;;5.97;;
6864;SDS011;3471;49.678;8.388;2023-08-12T09:03:12;6.82;;;5.85;;
6864;SDS011;3471;49.678;8.388;2023-08-12T09:05:39;6.97;;;6.37;;
6864;SDS011;3471;49.678;8.388;2023-08-12T09:08:06;6.47;;;5.88;;
6864;SDS011;3471;49.678;8.388;2023-08-12T09:10:36;7.43;;;6.68;;
6864;SDS011;3471;49.678;8.388;2023-08-12T09:13:05;7.82;;;7.07;;
6864;SDS011;3471;49.678;8.388;2023-08-12T09:15:31;7.47;;;6.50;;
6864;SDS011;3471;49.678;8.388;2023-08-12T09:17:57;7.80;;;6.25;;
6864;SDS011;3471;49.678;8.388;2023-08-12T09:20:23;9.77;;;7.00;;
6864;SDS011;3471;49.678;8.388;2023-08-12T09:22:55;7.10;;;6.40;;
6864;SDS011;3471;49.678;8.388;2023-08-12T09:25:24;9.25;;;6.90;;
6864;SDS011;3471;49.678;8.388;2023-08-12T09:27:59;8.15;;;6.00;;
6864;SDS011;3471;49.678;8.388;2023-08-12T09:30:28;9.32;;;6.80;;
6864;SDS011;3471;49.678;8.388;2023-08-12T09:32:58;7.53;;;6.15;;
6864;SDS011;3471;49.678;8.388;2023-08-12T09:35:30;11.15;;;7.78;;
6864;SDS011;3471;49.678;8.388;2023-08-12T09:38:05;7.15;;;5.65;;
6864;SDS011;3471;49.678;8.388;2023-08-12T09:40:40;12.00;;;6.07;;
6864;SDS011;3471;49.678;8.388;2023-08-12T09:43:06;9.90;;;6.60;;
6864;SDS011;3471;49.678;8.388;2023-08-12T09:45:33;6.88;;;5.50;;
6864;SDS011;3471;49.678;8.388;2023-08-12T09:47:59;8.93;;;5.85;;
6864;SDS011;3471;49.678;8.388;2023-08-12T09:50:26;6.63;;;6.03;;
6864;SDS011;3471;49.678;8.388;2023-08-12T09:52:53;10.63;;;5.80;;
6864;SDS011;3471;49.678;8.388;2023-08-12T09:55:21;5.57;;;4.97;;
6864;SDS011;3471;49.678;8.388;2023-08-12T09:57:51;6.82;;;5.88;;
6864;SDS011;3471;49.678;8.388;2023-08-12T10:00:18;5.97;;;4.97;;
6864;SDS011;3471;49.678;8.388;2023-08-12T10:02:47;5.68;;;5.18;;
6864;SDS011;3471;49.678;8.388;2023-08-12T10:05:16;6.95;;;6.25;;
6864;SDS011;3471;49.678;8.388;2023-08-12T10:07:46;6.70;;;5.20;;
6864;SDS011;3471;49.678;8.388;2023-08-12T10:10:12;8.20;;;5.80;;
6864;SDS011;3471;49.678;8.388;2023-08-12T10:12:39;7.47;;;6.00;;
6864;SDS011;3471;49.678;8.388;2023-08-12T10:15:06;6.65;;;4.15;;
6864;SDS011;3471;49.678;8.388;2023-08-12T10:17:33;9.40;;;4.90;;
6864;SDS011;3471;49.678;8.388;2023-08-12T10:20:00;4.30;;;3.27;;
6864;SDS011;3471;49.678;8.388;2023-08-12T10:22:29;12.85;;;4.78;;
6864;SDS011;3471;49.678;8.388;2023-08-12T10:24:59;3.97;;;3.58;;
6864;SDS011;3471;49.678;8.388;2023-08-12T10:27:27;4.70;;;4.17;;
6864;SDS011;3471;49.678;8.388;2023-08-12T10:29:55;5.53;;;4.10;;
6864;SDS011;3471;49.678;8.388;2023-08-12T10:32:22;3.83;;;3.30;;
6864;SDS011;3471;49.678;8.388;2023-08-12T10:34:53;9.35;;;3.88;;
6864;SDS011;3471;49.678;8.388;2023-08-12T10:37:23;4.53;;;4.10;;
6864;SDS011;3471;49.678;8.388;2023-08-12T10:39:49;3.60;;;2.85;;
6864;SDS011;3471;49.678;8.388;2023-08-12T10:45:11;6.53;;;3.67;;
6864;SDS011;3471;49.678;8.388;2023-08-12T10:47:38;8.10;;;3.20;;
6864;SDS011;3471;49.678;8.388;2023-08-12T10:50:21;4.63;;;4.10;;
6864;SDS011;3471;49.678;8.388;2023-08-12T10:52:53;5.20;;;2.78;;
6864;SDS011;3471;49.678;8.388;2023-08-12T10:55:20;7.93;;;3.67;;
6864;SDS011;3471;49.678;8.388;2023-08-12T10:57:48;4.80;;;2.80;;
6864;SDS011;3471;49.678;8.388;2023-08-12T11:00:19;12.57;;;3.60;;
6864;SDS011;3471;49.678;8.388;2023-08-12T11:02:53;5.00;;;3.40;;
6864;SDS011;3471;49.678;8.388;2023-08-12T11:05:23;4.20;;;3.50;;
6864;SDS011;3471;49.678;8.388;2023-08-12T11:07:59;6.43;;;3.60;;
6864;SDS011;3471;49.678;8.388;2023-08-12T11:10:27;4.80;;;3.03;;
6864;SDS011;3471;49.678;8.388;2023-08-12T11:12:56;2.10;;;1.90;;
6864;SDS011;3471;49.678;8.388;2023-08-12T11:17:54;4.20;;;2.22;;
6864;SDS011;3471;49.678;8.388;2023-08-12T11:20:20;5.80;;;3.10;;
6864;SDS011;3471;49.678;8.388;2023-08-12T11:22:46;6.60;;;2.80;;
6864;SDS011;3471;49.678;8.388;2023-08-12T11:25:13;3.15;;;2.70;;
6864;SDS011;3471;49.678;8.388;2023-08-12T11:27:43;5.10;;;2.83;;
6864;SDS011;3471;49.678;8.388;2023-08-12T11:30:11;3.80;;;2.85;;
6864;SDS011;3471;49.678;8.388;2023-08-12T11:32:40;4.28;;;2.90;;
6864;SDS011;3471;49.678;8.388;2023-08-12T11:35:06;5.10;;;2.80;;
6864;SDS011;3471;49.678;8.388;2023-08-12T11:37:34;3.88;;;2.85;;
6864;SDS011;3471;49.678;8.388;2023-08-12T11:40:01;4.20;;;2.75;;
6864;SDS011;3471;49.678;8.388;2023-08-12T11:42:28;6.30;;;2.70;;
6864;SDS011;3471;49.678;8.388;2023-08-12T11:44:54;3.73;;;2.70;;
6864;SDS011;3471;49.678;8.388;2023-08-12T11:47:19;2.70;;;2.20;;
6864;SDS011;3471;49.678;8.388;2023-08-12T11:49:45;5.73;;;3.10;;
6864;SDS011;3471;49.678;8.388;2023-08-12T11:52:11;4.20;;;3.28;;
6864;SDS011;3471;49.678;8.388;2023-08-12T11:54:37;4.45;;;2.33;;
6864;SDS011;3471;49.678;8.388;2023-08-12T11:57:03;3.20;;;2.10;;
6864;SDS011;3471;49.678;8.388;2023-08-12T11:59:30;4.47;;;3.00;;
6864;SDS011;3471;49.678;8.388;2023-08-12T12:01:55;5.30;;;2.00;;
6864;SDS011;3471;49.678;8.388;2023-08-12T12:04:21;5.78;;;2.20;;
6864;SDS011;3471;49.678;8.388;2023-08-12T12:06:47;5.57;;;3.03;;
6864;SDS011;3471;49.678;8.388;2023-08-12T12:09:13;3.28;;;2.97;;
6864;SDS011;3471;49.678;8.388;2023-08-12T12:11:41;6.80;;;3.70;;
6864;SDS011;3471;49.678;8.388;2023-08-12T12:14:07;3.83;;;2.25;;
6864;SDS011;3471;49.678;8.388;2023-08-12T12:16:37;10.00;;;2.17;;
6864;SDS011;3471;49.678;8.388;2023-08-12T12:19:21;2.88;;;2.60;;
6864;SDS011;3471;49.678;8.388;2023-08-12T12:21:49;5.88;;;2.47;;
6864;SDS011;3471;49.678;8.388;2023-08-12T12:24:16;2.20;;;2.00;;
6864;SDS011;3471;49.678;8.388;2023-08-12T12:26:43;3.22;;;2.10;;
6864;SDS011;3471;49.678;8.388;2023-08-12T12:29:09;2.45;;;2.25;;
6864;SDS011;3471;49.678;8.388;2023-08-12T12:31:39;4.10;;;3.20;;
6864;SDS011;3471;49.678;8.388;2023-08-12T12:34:06;3.80;;;2.60;;
6864;SDS011;3471;49.678;8.388;2023-08-12T12:36:34;3.55;;;2.65;;
6864;SDS011;3471;49.678;8.388;2023-08-12T12:39:01;3.50;;;2.83;;
6864;SDS011;3471;49.678;8.388;2023-08-12T12:41:28;4.60;;;1.77;;
6864;SDS011;3471;49.678;8.388;2023-08-12T12:43:53;2.97;;;2.03;;
6864;SDS011;3471;49.678;8.388;2023-08-12T12:46:19;4.30;;;3.00;;
6864;SDS011;3471;49.678;8.388;2023-08-12T12:48:44;3.07;;;1.90;;
6864;SDS011;3471;49.678;8.388;2023-08-12T12:51:11;3.17;;;2.30;;
6864;SDS011;3471;49.678;8.388;2023-08-12T12:53:37;2.80;;;2.25;;
6864;SDS011;3471;49.678;8.388;2023-08-12T12:56:03;4.00;;;3.60;;
6864;SDS011;3471;49.678;8.388;2023-08-12T12:58:30;7.13;;;2.83;;
6864;SDS011;3471;49.678;8.388;2023-08-12T13:00:57;3.00;;;2.47;;
6864;SDS011;3471;49.678;8.388;2023-08-12T13:03:22;2.73;;;2.30;;
6864;SDS011;3471;49.678;8.388;2023-08-12T13:05:49;3.60;;;2.42;;
6864;SDS011;3471;49.678;8.388;2023-08-12T13:08:15;3.10;;;1.80;;
6864;SDS011;3471;49.678;8.388;2023-08-12T13:10:40;5.37;;;3.23;;
6864;SDS011;3471;49.678;8.388;2023-08-12T13:13:06;2.80;;;2.50;;
6864;SDS011;3471;49.678;8.388;2023-08-12T13:15:31;3.67;;;3.28;;
6864;SDS011;3471;49.678;8.388;2023-08-12T13:17:57;4.20;;;1.77;;
6864;SDS011;3471;49.678;8.388;2023-08-12T13:20:23;6.75;;;3.50;;
6864;SDS011;3471;49.678;8.388;2023-08-12T13:22:48;3.60;;;2.93;;
6864;SDS011;3471;49.678;8.388;2023-08-12T13:25:14;3.00;;;2.40;;
6864;SDS011;3471;49.678;8.388;2023-08-12T13:27:39;3.08;;;2.60;;
6864;SDS011;3471;49.678;8.388;2023-08-12T13:30:05;4.30;;;2.50;;
6864;SDS011;3471;49.678;8.388;2023-08-12T13:32:31;4.18;;;2.20;;
6864;SDS011;3471;49.678;8.388;2023-08-12T13:34:57;3.60;;;2.77;;
6864;SDS011;3471;49.678;8.388;2023-08-12T13:37:22;2.45;;;2.00;;
6864;SDS011;3471;49.678;8.388;2023-08-12T13:39:48;4.00;;;2.77;;
6864;SDS011;3471;49.678;8.388;2023-08-12T13:42:13;6.70;;;2.80;;
6864;SDS011;3471;49.678;8.388;2023-08-12T13:44:39;2.93;;;2.20;;
6864;SDS011;3471;49.678;8.388;2023-08-12T13:47:05;3.15;;;2.05;;
6864;SDS011;3471;49.678;8.388;2023-08-12T13:49:31;5.77;;;2.87;;
6864;SDS011;3471;49.678;8.388;2023-08-12T13:51:57;2.40;;;1.60;;
6864;SDS011;3471;49.678;8.388;2023-08-12T13:54:24;2.30;;;1.70;;
6864;SDS011;3471;49.678;8.388;2023-08-12T13:56:50;2.65;;;2.10;;
6864;SDS011;3471;49.678;8.388;2023-08-12T13:59:15;2.17;;;1.97;;
6864;SDS011;3471;49.678;8.388;2023-08-12T14:01:41;3.58;;;1.70;;
6864;SDS011;3471;49.678;8.388;2023-08-12T14:04:06;2.50;;;2.30;;
6864;SDS011;3471;49.678;8.388;2023-08-12T14:06:32;2.80;;;1.70;;
6864;SDS011;3471;49.678;8.388;2023-08-12T14:08:57;2.20;;;1.75;;
6864;SDS011;3471;49.678;8.388;2023-08-12T14:11:23;3.00;;;2.00;;
6864;SDS011;3471;49.678;8.388;2023-08-12T14:13:48;2.20;;;1.70;;
6864;SDS011;3471;49.678;8.388;2023-08-12T14:16:14;3.17;;;1.93;;
6864;SDS011;3471;49.678;8.388;2023-08-12T14:18:40;2.10;;;1.90;;
6864;SDS011;3471;49.678;8.388;2023-08-12T14:21:05;5.70;;;2.90;;
6864;SDS011;3471;49.678;8.388;2023-08-12T14:23:31;3.50;;;2.00;;
6864;SDS011;3471;49.678;8.388;2023-08-12T14:25:56;3.72;;;2.40;;
6864;SDS011;3471;49.678;8.388;2023-08-12T14:28:22;2.43;;;2.17;;
6864;SDS011;3471;49.678;8.388;2023-08-12T14:30:48;3.10;;;2.70;;
6864;SDS011;3471;49.678;8.388;2023-08-12T14:33:14;4.25;;;2.20;;
6864;SDS011;3471;49.678;8.388;2023-08-12T14:35:39;7.13;;;3.50;;
6864;SDS011;3471;49.678;8.388;2023-08-12T14:38:05;14.90;;;3.87;;
6864;SDS011;3471;49.678;8.388;2023-08-12T14:40:30;4.47;;;3.60;;
6864;SDS011;3471;49.678;8.388;2023-08-12T14:42:56;4.00;;;3.60;;
6864;SDS011;3471;49.678;8.388;2023-08-12T14:45:21;3.38;;;3.08;;
6864;SDS011;3471;49.678;8.388;2023-08-12T14:47:47;3.17;;;2.77;;
6864;SDS011;3471;49.678;8.388;2023-08-12T14:50:12;3.90;;;2.60;;
6864;SDS011;3471;49.678;8.388;2023-08-12T14:52:38;3.73;;;2.90;;
6864;SDS011;3471;49.678;8.388;2023-08-12T14:55:04;4.10;;;3.03;;
6864;SDS011;3471;49.678;8.388;2023-08-12T14:57:30;4.60;;;3.15;;
6864;SDS011;3471;49.678;8.388;2023-08-12T14:59:55;2.87;;;2.40;;
6864;SDS011;3471;49.678;8.388;2023-08-12T15:02:21;4.22;;;3.20;;
6864;SDS011;3471;49.678;8.388;2023-08-12T15:04:50;6.18;;;3.00;;
6864;SDS011;3471;49.678;8.388;2023-08-12T15:07:16;4.10;;;2.40;;
6864;SDS011;3471;49.678;8.388;2023-08-12T15:09:43;2.97;;;2.50;;
6864;SDS011;3471;49.678;8.388;2023-08-12T15:12:09;4.50;;;3.20;;
6864;SDS011;3471;49.678;8.388;2023-08-12T15:14:35;4.70;;;2.60;;
6864;SDS011;3471;49.678;8.388;2023-08-12T15:17:00;4.73;;;2.57;;